sensor_id;sensor_type;location;lat;lon;timestamp;P1;durP1;ratioP1;P2;durP2;ratioP2
69305;SDS011;56427;51.580;4.656;2022-11-15T00:02:05;107.50;;;34.73;;
69305;SDS011;56427;51.580;4.656;2022-11-15T00:04:30;107.77;;;31.97;;
69305;SDS011;56427;51.580;4.656;2022-11-15T00:06:56;97.23;;;32.70;;
69305;SDS011;56427;51.580;4.656;2022-11-15T00:09:21;111.07;;;34.07;;
69305;SDS011;56427;51.580;4.656;2022-11-15T00:11:46;107.47;;;33.80;;
69305;SDS011;56427;51.580;4.656;2022-11-15T00:14:11;104.27;;;34.00;;
69305;SDS011;56427;51.580;4.656;2022-11-15T00:16:37;98.97;;;32.43;;
69305;SDS011;56427;51.580;4.656;2022-11-15T00:19:02;94.97;;;32.27;;
69305;SDS011;56427;51.580;4.656;2022-11-15T00:21:27;93.97;;;31.03;;
69305;SDS011;56427;51.580;4.656;2022-11-15T00:23:53;91.50;;;32.30;;
69305;SDS011;56427;51.580;4.656;2022-11-15T00:26:18;84.85;;;30.00;;
69305;SDS011;56427;51.580;4.656;2022-11-15T00:28:43;83.35;;;31.38;;
69305;SDS011;56427;51.580;4.656;2022-11-15T00:31:11;98.47;;;31.37;;
69305;SDS011;56427;51.580;4.656;2022-11-15T00:33:37;85.68;;;30.33;;
69305;SDS011;56427;51.580;4.656;2022-11-15T00:36:03;71.20;;;29.40;;
69305;SDS011;56427;51.580;4.656;2022-11-15T00:38:34;78.43;;;29.23;;
69305;SDS011;56427;51.580;4.656;2022-11-15T00:41:01;74.82;;;28.85;;
69305;SDS011;56427;51.580;4.656;2022-11-15T00:43:28;66.27;;;28.27;;
69305;SDS011;56427;51.580;4.656;2022-11-15T00:45:53;65.47;;;27.88;;
69305;SDS011;56427;51.580;4.656;2022-11-15T00:48:19;67.97;;;28.30;;
69305;SDS011;56427;51.580;4.656;2022-11-15T00:50:44;65.87;;;29.50;;
69305;SDS011;56427;51.580;4.656;2022-11-15T00:53:10;66.00;;;28.53;;
69305;SDS011;56427;51.580;4.656;2022-11-15T00:55:35;61.33;;;27.58;;
69305;SDS011;56427;51.580;4.656;2022-11-15T00:58:01;62.73;;;28.70;;
69305;SDS011;56427;51.580;4.656;2022-11-15T01:00:26;66.50;;;28.37;;
69305;SDS011;56427;51.580;4.656;2022-11-15T01:02:51;63.03;;;28.70;;
69305;SDS011;56427;51.580;4.656;2022-11-15T01:05:16;57.00;;;25.67;;
69305;SDS011;56427;51.580;4.656;2022-11-15T01:07:42;64.28;;;27.15;;
69305;SDS011;56427;51.580;4.656;2022-11-15T01:10:07;54.25;;;26.52;;
69305;SDS011;56427;51.580;4.656;2022-11-15T01:12:33;71.63;;;29.50;;
69305;SDS011;56427;51.580;4.656;2022-11-15T01:14:58;56.50;;;26.90;;
69305;SDS011;56427;51.580;4.656;2022-11-15T01:17:24;59.35;;;27.60;;
69305;SDS011;56427;51.580;4.656;2022-11-15T01:19:49;59.13;;;24.83;;
69305;SDS011;56427;51.580;4.656;2022-11-15T01:22:15;57.30;;;26.60;;
69305;SDS011;56427;51.580;4.656;2022-11-15T01:24:40;55.07;;;26.47;;
69305;SDS011;56427;51.580;4.656;2022-11-15T01:27:05;57.17;;;24.83;;
69305;SDS011;56427;51.580;4.656;2022-11-15T01:29:31;56.72;;;26.50;;
69305;SDS011;56427;51.580;4.656;2022-11-15T01:31:56;58.00;;;26.13;;
69305;SDS011;56427;51.580;4.656;2022-11-15T01:34:21;52.87;;;25.57;;
69305;SDS011;56427;51.580;4.656;2022-11-15T01:36:47;51.83;;;24.97;;
69305;SDS011;56427;51.580;4.656;2022-11-15T01:39:12;56.83;;;26.60;;
69305;SDS011;56427;51.580;4.656;2022-11-15T01:41:37;51.57;;;26.07;;
69305;SDS011;56427;51.580;4.656;2022-11-15T01:46:57;47.50;;;25.05;;
69305;SDS011;56427;51.580;4.656;2022-11-15T01:49:24;48.78;;;25.90;;
69305;SDS011;56427;51.580;4.656;2022-11-15T01:51:50;53.03;;;25.70;;
69305;SDS011;56427;51.580;4.656;2022-11-15T01:54:17;49.67;;;24.23;;
69305;SDS011;56427;51.580;4.656;2022-11-15T01:56:50;47.15;;;24.60;;
69305;SDS011;56427;51.580;4.656;2022-11-15T01:59:26;50.65;;;25.95;;
69305;SDS011;56427;51.580;4.656;2022-11-15T02:01:52;47.17;;;25.00;;
69305;SDS011;56427;51.580;4.656;2022-11-15T02:04:20;47.13;;;25.27;;
69305;SDS011;56427;51.580;4.656;2022-11-15T02:06:49;47.67;;;24.30;;
69305;SDS011;56427;51.580;4.656;2022-11-15T02:09:15;45.38;;;23.55;;
69305;SDS011;56427;51.580;4.656;2022-11-15T02:11:41;45.28;;;24.67;;
69305;SDS011;56427;51.580;4.656;2022-11-15T02:14:07;48.33;;;23.40;;
69305;SDS011;56427;51.580;4.656;2022-11-15T02:16:36;43.53;;;24.40;;
69305;SDS011;56427;51.580;4.656;2022-11-15T02:32:50;39.13;;;21.98;;
69305;SDS011;56427;51.580;4.656;2022-11-15T02:41:06;39.50;;;23.45;;
69305;SDS011;56427;51.580;4.656;2022-11-15T02:49:18;42.60;;;22.30;;
69305;SDS011;56427;51.580;4.656;2022-11-15T02:51:45;34.95;;;21.45;;
69305;SDS011;56427;51.580;4.656;2022-11-15T02:54:23;37.85;;;21.17;;
69305;SDS011;56427;51.580;4.656;2022-11-15T02:56:53;44.38;;;21.23;;
69305;SDS011;56427;51.580;4.656;2022-11-15T03:02:00;45.60;;;22.80;;
69305;SDS011;56427;51.580;4.656;2022-11-15T03:04:42;38.20;;;21.02;;
69305;SDS011;56427;51.580;4.656;2022-11-15T03:07:18;38.50;;;20.83;;
69305;SDS011;56427;51.580;4.656;2022-11-15T03:18:02;37.08;;;21.08;;
69305;SDS011;56427;51.580;4.656;2022-11-15T03:20:32;33.85;;;20.65;;
69305;SDS011;56427;51.580;4.656;2022-11-15T03:23:03;35.83;;;21.58;;
69305;SDS011;56427;51.580;4.656;2022-11-15T03:25:33;39.80;;;20.05;;
69305;SDS011;56427;51.580;4.656;2022-11-15T03:28:01;35.20;;;19.75;;
69305;SDS011;56427;51.580;4.656;2022-11-15T03:30:30;40.25;;;22.02;;
69305;SDS011;56427;51.580;4.656;2022-11-15T03:32:59;34.60;;;20.35;;
69305;SDS011;56427;51.580;4.656;2022-11-15T03:35:27;36.53;;;20.08;;
69305;SDS011;56427;51.580;4.656;2022-11-15T03:38:05;37.10;;;21.03;;
69305;SDS011;56427;51.580;4.656;2022-11-15T03:40:39;36.50;;;20.17;;
69305;SDS011;56427;51.580;4.656;2022-11-15T03:43:20;37.95;;;20.40;;
69305;SDS011;56427;51.580;4.656;2022-11-15T03:46:05;36.28;;;20.13;;
69305;SDS011;56427;51.580;4.656;2022-11-15T03:48:56;32.55;;;19.40;;
69305;SDS011;56427;51.580;4.656;2022-11-15T03:51:28;33.17;;;18.70;;
69305;SDS011;56427;51.580;4.656;2022-11-15T03:53:54;36.42;;;18.98;;
69305;SDS011;56427;51.580;4.656;2022-11-15T03:56:19;35.37;;;19.67;;
69305;SDS011;56427;51.580;4.656;2022-11-15T03:58:45;36.70;;;19.48;;
69305;SDS011;56427;51.580;4.656;2022-11-15T04:01:10;33.17;;;17.83;;
69305;SDS011;56427;51.580;4.656;2022-11-15T04:03:35;30.57;;;17.57;;
69305;SDS011;56427;51.580;4.656;2022-11-15T04:06:00;29.30;;;17.43;;
69305;SDS011;56427;51.580;4.656;2022-11-15T04:08:26;34.63;;;18.77;;
69305;SDS011;56427;51.580;4.656;2022-11-15T04:10:51;31.13;;;17.63;;
69305;SDS011;56427;51.580;4.656;2022-11-15T04:13:16;35.67;;;18.67;;
69305;SDS011;56427;51.580;4.656;2022-11-15T04:15:42;30.10;;;17.43;;
69305;SDS011;56427;51.580;4.656;2022-11-15T04:18:07;30.63;;;16.93;;
69305;SDS011;56427;51.580;4.656;2022-11-15T04:20:32;29.53;;;17.43;;
69305;SDS011;56427;51.580;4.656;2022-11-15T04:23:17;30.03;;;17.50;;
69305;SDS011;56427;51.580;4.656;2022-11-15T04:26:06;30.08;;;16.70;;
69305;SDS011;56427;51.580;4.656;2022-11-15T04:28:36;30.08;;;17.48;;
69305;SDS011;56427;51.580;4.656;2022-11-15T04:31:22;32.80;;;17.20;;
69305;SDS011;56427;51.580;4.656;2022-11-15T04:33:47;30.77;;;16.40;;
69305;SDS011;56427;51.580;4.656;2022-11-15T04:36:12;28.60;;;15.87;;
69305;SDS011;56427;51.580;4.656;2022-11-15T04:38:57;31.05;;;16.63;;
69305;SDS011;56427;51.580;4.656;2022-11-15T04:41:22;33.03;;;17.00;;
69305;SDS011;56427;51.580;4.656;2022-11-15T04:43:47;30.50;;;15.37;;
69305;SDS011;56427;51.580;4.656;2022-11-15T04:46:13;26.23;;;14.90;;
69305;SDS011;56427;51.580;4.656;2022-11-15T04:48:38;33.77;;;16.53;;
69305;SDS011;56427;51.580;4.656;2022-11-15T04:51:03;29.27;;;15.60;;
69305;SDS011;56427;51.580;4.656;2022-11-15T04:53:29;31.60;;;16.42;;
69305;SDS011;56427;51.580;4.656;2022-11-15T04:55:54;27.97;;;15.07;;
69305;SDS011;56427;51.580;4.656;2022-11-15T04:58:19;29.97;;;15.33;;
69305;SDS011;56427;51.580;4.656;2022-11-15T05:00:44;26.30;;;15.73;;
69305;SDS011;56427;51.580;4.656;2022-11-15T05:03:10;30.43;;;15.40;;
69305;SDS011;56427;51.580;4.656;2022-11-15T05:05:53;25.92;;;14.65;;
69305;SDS011;56427;51.580;4.656;2022-11-15T05:08:19;27.23;;;14.33;;
69305;SDS011;56427;51.580;4.656;2022-11-15T05:10:44;22.23;;;14.27;;
69305;SDS011;56427;51.580;4.656;2022-11-15T05:13:10;27.43;;;14.00;;
69305;SDS011;56427;51.580;4.656;2022-11-15T05:15:35;26.17;;;13.10;;
69305;SDS011;56427;51.580;4.656;2022-11-15T05:18:00;27.23;;;13.80;;
69305;SDS011;56427;51.580;4.656;2022-11-15T05:20:26;25.20;;;13.70;;
69305;SDS011;56427;51.580;4.656;2022-11-15T05:22:52;26.30;;;13.35;;
69305;SDS011;56427;51.580;4.656;2022-11-15T05:25:20;22.40;;;12.73;;
69305;SDS011;56427;51.580;4.656;2022-11-15T05:27:45;23.33;;;13.20;;
69305;SDS011;56427;51.580;4.656;2022-11-15T05:30:10;25.00;;;12.70;;
69305;SDS011;56427;51.580;4.656;2022-11-15T05:32:36;25.07;;;12.73;;
69305;SDS011;56427;51.580;4.656;2022-11-15T05:35:01;22.73;;;13.00;;
69305;SDS011;56427;51.580;4.656;2022-11-15T05:37:30;19.77;;;11.97;;
69305;SDS011;56427;51.580;4.656;2022-11-15T05:39:55;25.33;;;12.50;;
69305;SDS011;56427;51.580;4.656;2022-11-15T05:42:20;20.83;;;11.20;;
69305;SDS011;56427;51.580;4.656;2022-11-15T05:44:47;19.33;;;11.93;;
69305;SDS011;56427;51.580;4.656;2022-11-15T05:47:16;20.08;;;12.00;;
69305;SDS011;56427;51.580;4.656;2022-11-15T05:49:44;20.17;;;11.73;;
69305;SDS011;56427;51.580;4.656;2022-11-15T05:52:11;23.40;;;11.98;;
69305;SDS011;56427;51.580;4.656;2022-11-15T05:54:39;23.48;;;10.07;;
69305;SDS011;56427;51.580;4.656;2022-11-15T05:57:06;16.88;;;10.23;;
69305;SDS011;56427;51.580;4.656;2022-11-15T05:59:31;17.50;;;10.40;;
69305;SDS011;56427;51.580;4.656;2022-11-15T06:01:58;18.50;;;10.10;;
69305;SDS011;56427;51.580;4.656;2022-11-15T06:04:23;15.63;;;9.07;;
69305;SDS011;56427;51.580;4.656;2022-11-15T06:06:49;17.83;;;8.60;;
69305;SDS011;56427;51.580;4.656;2022-11-15T06:09:14;16.03;;;9.53;;
69305;SDS011;56427;51.580;4.656;2022-11-15T06:11:39;20.53;;;10.33;;
69305;SDS011;56427;51.580;4.656;2022-11-15T06:14:05;16.90;;;9.13;;
69305;SDS011;56427;51.580;4.656;2022-11-15T06:16:30;16.10;;;8.60;;
69305;SDS011;56427;51.580;4.656;2022-11-15T06:18:55;22.93;;;9.67;;
69305;SDS011;56427;51.580;4.656;2022-11-15T06:21:21;19.90;;;9.17;;
69305;SDS011;56427;51.580;4.656;2022-11-15T06:23:46;15.48;;;8.75;;
69305;SDS011;56427;51.580;4.656;2022-11-15T06:26:12;16.27;;;8.53;;
69305;SDS011;56427;51.580;4.656;2022-11-15T06:28:37;21.77;;;9.43;;
69305;SDS011;56427;51.580;4.656;2022-11-15T06:31:04;20.48;;;9.45;;
69305;SDS011;56427;51.580;4.656;2022-11-15T06:33:34;20.45;;;9.27;;
69305;SDS011;56427;51.580;4.656;2022-11-15T06:36:03;17.73;;;8.83;;
69305;SDS011;56427;51.580;4.656;2022-11-15T06:38:33;17.73;;;9.25;;
69305;SDS011;56427;51.580;4.656;2022-11-15T06:41:02;22.43;;;9.60;;
69305;SDS011;56427;51.580;4.656;2022-11-15T06:43:32;17.10;;;8.82;;
69305;SDS011;56427;51.580;4.656;2022-11-15T06:45:58;18.13;;;9.38;;
69305;SDS011;56427;51.580;4.656;2022-11-15T06:48:25;18.15;;;8.68;;
69305;SDS011;56427;51.580;4.656;2022-11-15T06:50:54;20.73;;;8.87;;
69305;SDS011;56427;51.580;4.656;2022-11-15T06:53:21;14.75;;;8.07;;
69305;SDS011;56427;51.580;4.656;2022-11-15T06:55:46;19.88;;;9.27;;
69305;SDS011;56427;51.580;4.656;2022-11-15T06:58:12;16.23;;;7.73;;
69305;SDS011;56427;51.580;4.656;2022-11-15T07:00:37;18.80;;;8.73;;
69305;SDS011;56427;51.580;4.656;2022-11-15T07:03:02;17.23;;;8.23;;
69305;SDS011;56427;51.580;4.656;2022-11-15T07:05:28;17.52;;;8.23;;
69305;SDS011;56427;51.580;4.656;2022-11-15T07:07:54;15.90;;;8.20;;
69305;SDS011;56427;51.580;4.656;2022-11-15T07:10:21;16.55;;;8.68;;
69305;SDS011;56427;51.580;4.656;2022-11-15T07:12:49;17.08;;;9.15;;
69305;SDS011;56427;51.580;4.656;2022-11-15T07:15:16;16.23;;;7.97;;
69305;SDS011;56427;51.580;4.656;2022-11-15T07:17:42;19.50;;;9.07;;
69305;SDS011;56427;51.580;4.656;2022-11-15T07:20:08;14.90;;;7.97;;
69305;SDS011;56427;51.580;4.656;2022-11-15T07:22:33;18.03;;;8.20;;
69305;SDS011;56427;51.580;4.656;2022-11-15T07:24:58;20.43;;;7.50;;
69305;SDS011;56427;51.580;4.656;2022-11-15T07:27:24;17.93;;;8.20;;
69305;SDS011;56427;51.580;4.656;2022-11-15T07:29:49;17.53;;;7.80;;
69305;SDS011;56427;51.580;4.656;2022-11-15T07:32:14;17.40;;;7.53;;
69305;SDS011;56427;51.580;4.656;2022-11-15T07:34:39;16.63;;;7.83;;
69305;SDS011;56427;51.580;4.656;2022-11-15T07:37:05;17.57;;;8.07;;
69305;SDS011;56427;51.580;4.656;2022-11-15T07:39:30;10.63;;;6.83;;
69305;SDS011;56427;51.580;4.656;2022-11-15T07:41:55;14.50;;;6.27;;
69305;SDS011;56427;51.580;4.656;2022-11-15T07:44:41;16.63;;;6.65;;
69305;SDS011;56427;51.580;4.656;2022-11-15T07:47:06;10.80;;;6.03;;
69305;SDS011;56427;51.580;4.656;2022-11-15T07:49:31;13.10;;;6.63;;
69305;SDS011;56427;51.580;4.656;2022-11-15T07:51:56;16.53;;;7.67;;
69305;SDS011;56427;51.580;4.656;2022-11-15T07:54:22;14.93;;;7.30;;
69305;SDS011;56427;51.580;4.656;2022-11-15T07:56:47;13.37;;;7.27;;
69305;SDS011;56427;51.580;4.656;2022-11-15T07:59:12;14.30;;;7.43;;
69305;SDS011;56427;51.580;4.656;2022-11-15T08:01:37;13.53;;;7.63;;
69305;SDS011;56427;51.580;4.656;2022-11-15T08:04:03;12.43;;;7.20;;
69305;SDS011;56427;51.580;4.656;2022-11-15T08:06:28;13.48;;;7.45;;
69305;SDS011;56427;51.580;4.656;2022-11-15T08:08:53;14.33;;;7.37;;
69305;SDS011;56427;51.580;4.656;2022-11-15T08:11:19;15.10;;;7.90;;
69305;SDS011;56427;51.580;4.656;2022-11-15T08:13:44;14.10;;;7.60;;
69305;SDS011;56427;51.580;4.656;2022-11-15T08:16:09;17.87;;;7.97;;
69305;SDS011;56427;51.580;4.656;2022-11-15T08:18:36;12.38;;;7.38;;
69305;SDS011;56427;51.580;4.656;2022-11-15T08:21:02;14.70;;;7.37;;
69305;SDS011;56427;51.580;4.656;2022-11-15T08:23:28;17.00;;;6.88;;
69305;SDS011;56427;51.580;4.656;2022-11-15T08:25:58;13.07;;;6.27;;
69305;SDS011;56427;51.580;4.656;2022-11-15T08:28:25;13.65;;;6.40;;
69305;SDS011;56427;51.580;4.656;2022-11-15T08:30:50;9.73;;;5.73;;
69305;SDS011;56427;51.580;4.656;2022-11-15T08:33:16;10.87;;;5.83;;
69305;SDS011;56427;51.580;4.656;2022-11-15T08:35:41;10.13;;;5.93;;
69305;SDS011;56427;51.580;4.656;2022-11-15T08:38:08;12.85;;;6.47;;
69305;SDS011;56427;51.580;4.656;2022-11-15T08:40:33;11.73;;;5.23;;
69305;SDS011;56427;51.580;4.656;2022-11-15T08:42:58;10.27;;;5.70;;
69305;SDS011;56427;51.580;4.656;2022-11-15T08:45:27;13.57;;;5.30;;
69305;SDS011;56427;51.580;4.656;2022-11-15T08:47:52;9.70;;;4.97;;
69305;SDS011;56427;51.580;4.656;2022-11-15T08:50:17;12.10;;;4.83;;
69305;SDS011;56427;51.580;4.656;2022-11-15T08:52:43;10.57;;;4.85;;
69305;SDS011;56427;51.580;4.656;2022-11-15T08:55:09;10.95;;;4.82;;
69305;SDS011;56427;51.580;4.656;2022-11-15T08:57:34;11.53;;;4.93;;
69305;SDS011;56427;51.580;4.656;2022-11-15T08:59:59;10.73;;;4.97;;
69305;SDS011;56427;51.580;4.656;2022-11-15T09:02:24;7.67;;;4.23;;
69305;SDS011;56427;51.580;4.656;2022-11-15T09:04:50;11.07;;;5.70;;
69305;SDS011;56427;51.580;4.656;2022-11-15T09:07:15;10.27;;;4.63;;
69305;SDS011;56427;51.580;4.656;2022-11-15T09:09:40;6.30;;;4.10;;
69305;SDS011;56427;51.580;4.656;2022-11-15T09:12:06;10.97;;;5.10;;
69305;SDS011;56427;51.580;4.656;2022-11-15T09:14:32;7.82;;;4.45;;
69305;SDS011;56427;51.580;4.656;2022-11-15T09:16:58;15.17;;;5.37;;
69305;SDS011;56427;51.580;4.656;2022-11-15T09:19:23;11.50;;;4.87;;
69305;SDS011;56427;51.580;4.656;2022-11-15T09:21:48;10.45;;;4.40;;
69305;SDS011;56427;51.580;4.656;2022-11-15T09:24:14;8.10;;;3.90;;
69305;SDS011;56427;51.580;4.656;2022-11-15T09:26:39;9.93;;;4.63;;
69305;SDS011;56427;51.580;4.656;2022-11-15T09:29:05;9.48;;;5.38;;
69305;SDS011;56427;51.580;4.656;2022-11-15T09:31:30;7.93;;;4.03;;
69305;SDS011;56427;51.580;4.656;2022-11-15T09:33:56;6.97;;;3.70;;
69305;SDS011;56427;51.580;4.656;2022-11-15T09:36:21;10.00;;;4.03;;
69305;SDS011;56427;51.580;4.656;2022-11-15T09:38:46;6.73;;;3.50;;
69305;SDS011;56427;51.580;4.656;2022-11-15T09:49:17;10.02;;;3.40;;
69305;SDS011;56427;51.580;4.656;2022-11-15T09:51:44;8.40;;;3.33;;
69305;SDS011;56427;51.580;4.656;2022-11-15T09:54:21;9.90;;;3.10;;
69305;SDS011;56427;51.580;4.656;2022-11-15T09:56:52;8.85;;;3.17;;
69305;SDS011;56427;51.580;4.656;2022-11-15T09:59:31;10.03;;;2.83;;
69305;SDS011;56427;51.580;4.656;2022-11-15T10:04:51;9.32;;;3.25;;
69305;SDS011;56427;51.580;4.656;2022-11-15T10:07:23;8.18;;;2.80;;
69305;SDS011;56427;51.580;4.656;2022-11-15T10:12:21;8.03;;;3.23;;
69305;SDS011;56427;51.580;4.656;2022-11-15T10:14:47;4.97;;;2.78;;
69305;SDS011;56427;51.580;4.656;2022-11-15T10:22:34;5.45;;;2.20;;
69305;SDS011;56427;51.580;4.656;2022-11-15T10:27:34;6.43;;;2.40;;
69305;SDS011;56427;51.580;4.656;2022-11-15T10:30:00;8.48;;;2.53;;
69305;SDS011;56427;51.580;4.656;2022-11-15T10:32:28;10.47;;;2.90;;
69305;SDS011;56427;51.580;4.656;2022-11-15T10:34:54;7.57;;;2.30;;
69305;SDS011;56427;51.580;4.656;2022-11-15T10:37:29;11.57;;;2.60;;
69305;SDS011;56427;51.580;4.656;2022-11-15T10:40:06;9.07;;;2.20;;
69305;SDS011;56427;51.580;4.656;2022-11-15T10:45:36;8.18;;;2.47;;
69305;SDS011;56427;51.580;4.656;2022-11-15T10:50:37;6.50;;;2.30;;
69305;SDS011;56427;51.580;4.656;2022-11-15T10:55:54;7.45;;;1.85;;
69305;SDS011;56427;51.580;4.656;2022-11-15T11:03:45;6.07;;;1.87;;
69305;SDS011;56427;51.580;4.656;2022-11-15T11:06:24;7.90;;;1.75;;
69305;SDS011;56427;51.580;4.656;2022-11-15T11:08:53;6.57;;;1.80;;
69305;SDS011;56427;51.580;4.656;2022-11-15T11:11:24;8.27;;;1.58;;
69305;SDS011;56427;51.580;4.656;2022-11-15T11:14:12;6.35;;;1.75;;
69305;SDS011;56427;51.580;4.656;2022-11-15T11:16:42;7.50;;;1.58;;
69305;SDS011;56427;51.580;4.656;2022-11-15T11:22:02;6.67;;;1.53;;
69305;SDS011;56427;51.580;4.656;2022-11-15T11:30:39;7.53;;;1.83;;
69305;SDS011;56427;51.580;4.656;2022-11-15T11:33:26;4.47;;;1.83;;
69305;SDS011;56427;51.580;4.656;2022-11-15T11:41:43;7.88;;;1.40;;
69305;SDS011;56427;51.580;4.656;2022-11-15T11:47:22;5.03;;;1.33;;
69305;SDS011;56427;51.580;4.656;2022-11-15T11:49:57;7.70;;;1.40;;
69305;SDS011;56427;51.580;4.656;2022-11-15T11:57:48;7.65;;;1.48;;
69305;SDS011;56427;51.580;4.656;2022-11-15T12:00:24;5.47;;;1.20;;
69305;SDS011;56427;51.580;4.656;2022-11-15T12:05:40;6.47;;;1.23;;
69305;SDS011;56427;51.580;4.656;2022-11-15T12:10:41;4.35;;;1.38;;
69305;SDS011;56427;51.580;4.656;2022-11-15T12:13:19;4.60;;;1.17;;
69305;SDS011;56427;51.580;4.656;2022-11-15T12:15:54;9.23;;;1.57;;
69305;SDS011;56427;51.580;4.656;2022-11-15T12:18:24;7.75;;;1.10;;
69305;SDS011;56427;51.580;4.656;2022-11-15T12:20:52;5.63;;;1.30;;
69305;SDS011;56427;51.580;4.656;2022-11-15T12:23:23;8.43;;;1.40;;
69305;SDS011;56427;51.580;4.656;2022-11-15T12:31:32;6.50;;;1.35;;
69305;SDS011;56427;51.580;4.656;2022-11-15T12:36:45;7.00;;;1.17;;
69305;SDS011;56427;51.580;4.656;2022-11-15T12:39:12;6.43;;;1.65;;
69305;SDS011;56427;51.580;4.656;2022-11-15T12:41:39;6.20;;;1.10;;
69305;SDS011;56427;51.580;4.656;2022-11-15T12:44:10;5.07;;;1.33;;
69305;SDS011;56427;51.580;4.656;2022-11-15T13:02:18;8.13;;;1.30;;
69305;SDS011;56427;51.580;4.656;2022-11-15T13:04:46;5.00;;;1.60;;
69305;SDS011;56427;51.580;4.656;2022-11-15T13:17:45;6.13;;;1.50;;
69305;SDS011;56427;51.580;4.656;2022-11-15T13:25:18;5.13;;;1.33;;
69305;SDS011;56427;51.580;4.656;2022-11-15T13:27:50;5.05;;;1.73;;
69305;SDS011;56427;51.580;4.656;2022-11-15T13:30:19;4.37;;;1.50;;
69305;SDS011;56427;51.580;4.656;2022-11-15T13:32:48;6.65;;;1.60;;
69305;SDS011;56427;51.580;4.656;2022-11-15T13:35:18;5.13;;;1.50;;
69305;SDS011;56427;51.580;4.656;2022-11-15T13:37:51;4.30;;;1.20;;
69305;SDS011;56427;51.580;4.656;2022-11-15T13:40:26;4.53;;;1.30;;
69305;SDS011;56427;51.580;4.656;2022-11-15T13:42:59;7.25;;;1.80;;
69305;SDS011;56427;51.580;4.656;2022-11-15T13:45:38;5.28;;;1.30;;
69305;SDS011;56427;51.580;4.656;2022-11-15T13:48:04;5.17;;;1.27;;
69305;SDS011;56427;51.580;4.656;2022-11-15T13:50:32;4.72;;;1.10;;
69305;SDS011;56427;51.580;4.656;2022-11-15T13:53:02;6.72;;;1.30;;
69305;SDS011;56427;51.580;4.656;2022-11-15T13:55:29;4.13;;;1.00;;
69305;SDS011;56427;51.580;4.656;2022-11-15T13:57:58;5.63;;;1.30;;
69305;SDS011;56427;51.580;4.656;2022-11-15T14:02:55;6.57;;;1.20;;
69305;SDS011;56427;51.580;4.656;2022-11-15T14:05:30;6.00;;;1.50;;
69305;SDS011;56427;51.580;4.656;2022-11-15T14:13:01;6.43;;;2.10;;
69305;SDS011;56427;51.580;4.656;2022-11-15T14:17:58;7.75;;;1.30;;
69305;SDS011;56427;51.580;4.656;2022-11-15T14:20:57;3.92;;;1.30;;
69305;SDS011;56427;51.580;4.656;2022-11-15T14:23:29;3.15;;;1.20;;
69305;SDS011;56427;51.580;4.656;2022-11-15T14:25:58;5.57;;;1.30;;
69305;SDS011;56427;51.580;4.656;2022-11-15T14:30:50;5.73;;;1.50;;
69305;SDS011;56427;51.580;4.656;2022-11-15T14:33:25;5.40;;;1.30;;
69305;SDS011;56427;51.580;4.656;2022-11-15T14:35:57;4.78;;;1.38;;
69305;SDS011;56427;51.580;4.656;2022-11-15T14:38:27;6.65;;;1.35;;
69305;SDS011;56427;51.580;4.656;2022-11-15T14:40:52;4.83;;;1.33;;
69305;SDS011;56427;51.580;4.656;2022-11-15T14:43:19;4.18;;;1.30;;
69305;SDS011;56427;51.580;4.656;2022-11-15T14:45:45;5.53;;;1.43;;
69305;SDS011;56427;51.580;4.656;2022-11-15T14:48:10;7.50;;;1.23;;
69305;SDS011;56427;51.580;4.656;2022-11-15T14:50:35;6.80;;;1.77;;
69305;SDS011;56427;51.580;4.656;2022-11-15T14:53:01;8.20;;;1.70;;
69305;SDS011;56427;51.580;4.656;2022-11-15T14:55:28;5.20;;;1.50;;
69305;SDS011;56427;51.580;4.656;2022-11-15T14:57:56;8.27;;;1.70;;
69305;SDS011;56427;51.580;4.656;2022-11-15T15:00:22;4.68;;;1.75;;
69305;SDS011;56427;51.580;4.656;2022-11-15T15:02:48;6.37;;;1.73;;
69305;SDS011;56427;51.580;4.656;2022-11-15T15:05:18;5.10;;;1.42;;
69305;SDS011;56427;51.580;4.656;2022-11-15T15:07:45;4.18;;;1.30;;
69305;SDS011;56427;51.580;4.656;2022-11-15T15:10:11;3.30;;;1.40;;
69305;SDS011;56427;51.580;4.656;2022-11-15T15:12:37;7.35;;;1.60;;
69305;SDS011;56427;51.580;4.656;2022-11-15T15:15:03;5.50;;;1.55;;
69305;SDS011;56427;51.580;4.656;2022-11-15T15:17:29;5.23;;;1.33;;
69305;SDS011;56427;51.580;4.656;2022-11-15T15:19:54;5.95;;;1.60;;
69305;SDS011;56427;51.580;4.656;2022-11-15T15:22:19;6.43;;;2.00;;
69305;SDS011;56427;51.580;4.656;2022-11-15T15:24:50;3.63;;;1.40;;
69305;SDS011;56427;51.580;4.656;2022-11-15T15:27:15;5.07;;;1.77;;
69305;SDS011;56427;51.580;4.656;2022-11-15T15:29:41;6.30;;;1.83;;
69305;SDS011;56427;51.580;4.656;2022-11-15T15:32:06;3.73;;;1.50;;
69305;SDS011;56427;51.580;4.656;2022-11-15T15:34:33;6.78;;;2.13;;
69305;SDS011;56427;51.580;4.656;2022-11-15T15:39:50;5.65;;;1.92;;
69305;SDS011;56427;51.580;4.656;2022-11-15T15:42:17;6.32;;;1.90;;
69305;SDS011;56427;51.580;4.656;2022-11-15T15:44:43;7.72;;;2.40;;
69305;SDS011;56427;51.580;4.656;2022-11-15T15:47:10;6.93;;;2.57;;
69305;SDS011;56427;51.580;4.656;2022-11-15T15:49:41;10.65;;;3.13;;
69305;SDS011;56427;51.580;4.656;2022-11-15T15:52:06;11.37;;;3.67;;
69305;SDS011;56427;51.580;4.656;2022-11-15T15:54:31;11.53;;;3.73;;
69305;SDS011;56427;51.580;4.656;2022-11-15T15:56:58;9.15;;;3.28;;
69305;SDS011;56427;51.580;4.656;2022-11-15T15:59:23;10.07;;;3.13;;
69305;SDS011;56427;51.580;4.656;2022-11-15T16:01:49;4.00;;;2.23;;
69305;SDS011;56427;51.580;4.656;2022-11-15T16:04:14;7.97;;;3.27;;
69305;SDS011;56427;51.580;4.656;2022-11-15T16:06:39;9.23;;;3.37;;
69305;SDS011;56427;51.580;4.656;2022-11-15T16:09:11;8.27;;;3.53;;
69305;SDS011;56427;51.580;4.656;2022-11-15T16:11:41;10.23;;;3.70;;
69305;SDS011;56427;51.580;4.656;2022-11-15T16:14:07;6.40;;;3.25;;
69305;SDS011;56427;51.580;4.656;2022-11-15T16:16:33;6.27;;;3.10;;
69305;SDS011;56427;51.580;4.656;2022-11-15T16:18:59;8.60;;;3.78;;
69305;SDS011;56427;51.580;4.656;2022-11-15T16:21:25;8.10;;;4.15;;
69305;SDS011;56427;51.580;4.656;2022-11-15T16:23:51;12.70;;;4.30;;
69305;SDS011;56427;51.580;4.656;2022-11-15T16:26:34;10.03;;;4.37;;
69305;SDS011;56427;51.580;4.656;2022-11-15T16:29:01;5.63;;;2.97;;
69305;SDS011;56427;51.580;4.656;2022-11-15T16:31:26;5.23;;;3.03;;
69305;SDS011;56427;51.580;4.656;2022-11-15T16:33:52;6.38;;;3.30;;
69305;SDS011;56427;51.580;4.656;2022-11-15T16:38:46;7.30;;;3.43;;
69305;SDS011;56427;51.580;4.656;2022-11-15T16:41:12;8.18;;;3.50;;
69305;SDS011;56427;51.580;4.656;2022-11-15T16:43:37;6.90;;;3.60;;
69305;SDS011;56427;51.580;4.656;2022-11-15T16:49:34;6.50;;;4.05;;
69305;SDS011;56427;51.580;4.656;2022-11-15T17:11:40;12.25;;;6.97;;
69305;SDS011;56427;51.580;4.656;2022-11-15T17:21:46;9.27;;;6.53;;
69305;SDS011;56427;51.580;4.656;2022-11-15T17:24:26;12.27;;;7.15;;
69305;SDS011;56427;51.580;4.656;2022-11-15T17:30:13;15.93;;;8.40;;
69305;SDS011;56427;51.580;4.656;2022-11-15T17:32:49;17.08;;;8.02;;
69305;SDS011;56427;51.580;4.656;2022-11-15T17:42:22;13.52;;;7.80;;
69305;SDS011;56427;51.580;4.656;2022-11-15T17:44:50;16.87;;;9.93;;
69305;SDS011;56427;51.580;4.656;2022-11-15T18:04:07;17.23;;;7.90;;
69305;SDS011;56427;51.580;4.656;2022-11-15T18:10:07;16.23;;;9.25;;
69305;SDS011;56427;51.580;4.656;2022-11-15T18:12:33;16.00;;;9.75;;
69305;SDS011;56427;51.580;4.656;2022-11-15T18:14:59;14.52;;;9.25;;
69305;SDS011;56427;51.580;4.656;2022-11-15T18:17:25;18.38;;;10.23;;
69305;SDS011;56427;51.580;4.656;2022-11-15T18:19:50;12.70;;;8.43;;